sensor_id;sensor_type;location;lat;lon;timestamp;P1;durP1;ratioP1;P2;durP2;ratioP2
14209;SDS011;7188;56.070;12.698;2023-10-19T00:00:51;1.07;;;0.87;;
14209;SDS011;7188;56.070;12.698;2023-10-19T00:03:19;3.73;;;0.90;;
14209;SDS011;7188;56.070;12.698;2023-10-19T00:05:45;3.43;;;1.30;;
14209;SDS011;7188;56.070;12.698;2023-10-19T00:08:14;1.97;;;1.10;;
14209;SDS011;7188;56.070;12.698;2023-10-19T00:10:50;4.63;;;1.83;;
14209;SDS011;7188;56.070;12.698;2023-10-19T00:13:35;2.83;;;1.10;;
14209;SDS011;7188;56.070;12.698;2023-10-19T00:16:03;2.87;;;1.30;;
14209;SDS011;7188;56.070;12.698;2023-10-19T00:18:37;1.83;;;1.33;;
14209;SDS011;7188;56.070;12.698;2023-10-19T00:21:07;2.47;;;1.80;;
14209;SDS011;7188;56.070;12.698;2023-10-19T00:23:53;2.33;;;1.40;;
14209;SDS011;7188;56.070;12.698;2023-10-19T00:26:22;2.70;;;1.30;;
14209;SDS011;7188;56.070;12.698;2023-10-19T00:28:50;2.47;;;1.40;;
14209;SDS011;7188;56.070;12.698;2023-10-19T00:31:19;3.40;;;1.10;;
14209;SDS011;7188;56.070;12.698;2023-10-19T00:33:49;2.60;;;1.10;;
14209;SDS011;7188;56.070;12.698;2023-10-19T00:36:19;1.47;;;1.20;;
14209;SDS011;7188;56.070;12.698;2023-10-19T00:38:46;1.30;;;0.80;;
14209;SDS011;7188;56.070;12.698;2023-10-19T00:41:15;1.73;;;1.03;;
14209;SDS011;7188;56.070;12.698;2023-10-19T00:43:55;2.33;;;1.40;;
14209;SDS011;7188;56.070;12.698;2023-10-19T00:46:37;3.77;;;1.23;;
14209;SDS011;7188;56.070;12.698;2023-10-19T00:49:03;1.67;;;1.20;;
14209;SDS011;7188;56.070;12.698;2023-10-19T00:51:52;1.33;;;0.70;;
14209;SDS011;7188;56.070;12.698;2023-10-19T00:54:27;1.37;;;0.77;;
14209;SDS011;7188;56.070;12.698;2023-10-19T00:57:12;1.43;;;1.07;;
14209;SDS011;7188;56.070;12.698;2023-10-19T00:59:38;2.13;;;1.00;;
14209;SDS011;7188;56.070;12.698;2023-10-19T01:02:08;1.03;;;0.80;;
14209;SDS011;7188;56.070;12.698;2023-10-19T01:04:44;1.73;;;1.10;;
14209;SDS011;7188;56.070;12.698;2023-10-19T01:07:11;2.00;;;1.27;;
14209;SDS011;7188;56.070;12.698;2023-10-19T01:09:41;2.53;;;1.30;;
14209;SDS011;7188;56.070;12.698;2023-10-19T01:12:11;2.77;;;1.03;;
14209;SDS011;7188;56.070;12.698;2023-10-19T01:17:45;4.83;;;1.37;;
14209;SDS011;7188;56.070;12.698;2023-10-19T01:20:22;4.20;;;1.40;;
14209;SDS011;7188;56.070;12.698;2023-10-19T01:22:56;1.40;;;1.30;;
14209;SDS011;7188;56.070;12.698;2023-10-19T01:25:44;1.60;;;1.47;;
14209;SDS011;7188;56.070;12.698;2023-10-19T01:28:19;2.60;;;1.10;;
14209;SDS011;7188;56.070;12.698;2023-10-19T01:30:47;3.17;;;1.17;;
14209;SDS011;7188;56.070;12.698;2023-10-19T01:33:16;3.37;;;1.20;;
14209;SDS011;7188;56.070;12.698;2023-10-19T01:35:43;2.57;;;1.50;;
14209;SDS011;7188;56.070;12.698;2023-10-19T01:38:31;2.77;;;1.33;;
14209;SDS011;7188;56.070;12.698;2023-10-19T01:40:58;3.03;;;1.50;;
14209;SDS011;7188;56.070;12.698;2023-10-19T01:43:31;3.83;;;1.40;;
14209;SDS011;7188;56.070;12.698;2023-10-19T01:45:57;4.37;;;1.20;;
14209;SDS011;7188;56.070;12.698;2023-10-19T01:48:24;3.50;;;1.20;;
14209;SDS011;7188;56.070;12.698;2023-10-19T01:51:01;1.53;;;1.10;;
14209;SDS011;7188;56.070;12.698;2023-10-19T01:53:32;2.47;;;1.30;;
14209;SDS011;7188;56.070;12.698;2023-10-19T01:55:59;4.43;;;1.30;;
14209;SDS011;7188;56.070;12.698;2023-10-19T01:58:25;2.07;;;1.07;;
14209;SDS011;7188;56.070;12.698;2023-10-19T02:00:51;2.63;;;1.20;;
14209;SDS011;7188;56.070;12.698;2023-10-19T02:06:09;2.57;;;1.23;;
14209;SDS011;7188;56.070;12.698;2023-10-19T02:08:51;1.60;;;1.13;;
14209;SDS011;7188;56.070;12.698;2023-10-19T02:11:25;3.23;;;1.00;;
14209;SDS011;7188;56.070;12.698;2023-10-19T02:13:52;1.10;;;1.00;;
14209;SDS011;7188;56.070;12.698;2023-10-19T02:16:20;3.27;;;1.00;;
14209;SDS011;7188;56.070;12.698;2023-10-19T02:18:49;3.47;;;1.60;;
14209;SDS011;7188;56.070;12.698;2023-10-19T02:21:15;3.70;;;1.37;;
14209;SDS011;7188;56.070;12.698;2023-10-19T02:23:47;4.37;;;1.63;;
14209;SDS011;7188;56.070;12.698;2023-10-19T02:26:19;4.43;;;1.10;;
14209;SDS011;7188;56.070;12.698;2023-10-19T02:28:47;3.87;;;1.00;;
14209;SDS011;7188;56.070;12.698;2023-10-19T02:31:16;2.60;;;1.10;;
14209;SDS011;7188;56.070;12.698;2023-10-19T02:33:53;1.97;;;1.00;;
14209;SDS011;7188;56.070;12.698;2023-10-19T02:36:29;2.53;;;0.90;;
14209;SDS011;7188;56.070;12.698;2023-10-19T02:39:00;5.17;;;1.30;;
14209;SDS011;7188;56.070;12.698;2023-10-19T02:41:33;2.20;;;1.40;;
14209;SDS011;7188;56.070;12.698;2023-10-19T02:44:03;3.70;;;1.03;;
14209;SDS011;7188;56.070;12.698;2023-10-19T02:46:34;2.77;;;0.93;;
14209;SDS011;7188;56.070;12.698;2023-10-19T02:49:04;2.40;;;1.00;;
14209;SDS011;7188;56.070;12.698;2023-10-19T02:51:36;3.73;;;1.17;;
14209;SDS011;7188;56.070;12.698;2023-10-19T02:54:02;3.27;;;0.80;;
14209;SDS011;7188;56.070;12.698;2023-10-19T02:56:28;3.17;;;0.83;;
14209;SDS011;7188;56.070;12.698;2023-10-19T02:58:56;2.03;;;1.17;;
14209;SDS011;7188;56.070;12.698;2023-10-19T03:01:32;3.20;;;0.90;;
14209;SDS011;7188;56.070;12.698;2023-10-19T03:03:59;3.20;;;0.90;;
14209;SDS011;7188;56.070;12.698;2023-10-19T03:06:29;1.03;;;0.60;;
14209;SDS011;7188;56.070;12.698;2023-10-19T03:08:59;3.47;;;1.50;;
14209;SDS011;7188;56.070;12.698;2023-10-19T03:11:47;3.70;;;1.17;;
14209;SDS011;7188;56.070;12.698;2023-10-19T03:14:17;4.80;;;1.00;;
14209;SDS011;7188;56.070;12.698;2023-10-19T03:16:43;3.63;;;1.10;;
14209;SDS011;7188;56.070;12.698;2023-10-19T03:19:10;3.30;;;1.13;;
14209;SDS011;7188;56.070;12.698;2023-10-19T03:21:38;1.93;;;1.10;;
14209;SDS011;7188;56.070;12.698;2023-10-19T03:24:08;1.57;;;0.80;;
14209;SDS011;7188;56.070;12.698;2023-10-19T03:26:38;1.93;;;1.00;;
14209;SDS011;7188;56.070;12.698;2023-10-19T03:29:08;3.60;;;1.10;;
14209;SDS011;7188;56.070;12.698;2023-10-19T03:31:40;2.23;;;1.50;;
14209;SDS011;7188;56.070;12.698;2023-10-19T03:34:10;4.87;;;1.07;;
14209;SDS011;7188;56.070;12.698;2023-10-19T03:36:37;3.60;;;1.17;;
14209;SDS011;7188;56.070;12.698;2023-10-19T03:39:04;1.90;;;0.70;;
14209;SDS011;7188;56.070;12.698;2023-10-19T03:41:43;1.20;;;0.80;;
14209;SDS011;7188;56.070;12.698;2023-10-19T03:44:10;2.83;;;0.90;;
14209;SDS011;7188;56.070;12.698;2023-10-19T03:46:44;4.13;;;1.50;;
14209;SDS011;7188;56.070;12.698;2023-10-19T03:49:21;6.27;;;1.53;;
14209;SDS011;7188;56.070;12.698;2023-10-19T03:51:48;4.80;;;1.37;;
14209;SDS011;7188;56.070;12.698;2023-10-19T03:54:32;2.13;;;0.80;;
14209;SDS011;7188;56.070;12.698;2023-10-19T03:56:58;3.53;;;0.90;;
14209;SDS011;7188;56.070;12.698;2023-10-19T03:59:28;4.73;;;1.23;;
14209;SDS011;7188;56.070;12.698;2023-10-19T04:02:00;3.43;;;1.30;;
14209;SDS011;7188;56.070;12.698;2023-10-19T04:04:32;2.00;;;1.00;;
14209;SDS011;7188;56.070;12.698;2023-10-19T04:06:58;2.67;;;1.30;;
14209;SDS011;7188;56.070;12.698;2023-10-19T04:09:24;1.60;;;1.07;;
14209;SDS011;7188;56.070;12.698;2023-10-19T04:11:57;0.93;;;0.90;;
14209;SDS011;7188;56.070;12.698;2023-10-19T04:14:23;3.13;;;1.37;;
14209;SDS011;7188;56.070;12.698;2023-10-19T04:16:49;4.23;;;1.00;;
14209;SDS011;7188;56.070;12.698;2023-10-19T04:19:14;2.20;;;1.20;;
14209;SDS011;7188;56.070;12.698;2023-10-19T04:21:41;1.63;;;1.20;;
14209;SDS011;7188;56.070;12.698;2023-10-19T04:24:12;4.10;;;1.20;;
14209;SDS011;7188;56.070;12.698;2023-10-19T04:26:38;2.43;;;0.90;;
14209;SDS011;7188;56.070;12.698;2023-10-19T04:29:05;3.20;;;1.60;;
14209;SDS011;7188;56.070;12.698;2023-10-19T04:31:42;2.73;;;1.37;;
14209;SDS011;7188;56.070;12.698;2023-10-19T04:34:15;3.50;;;1.00;;
14209;SDS011;7188;56.070;12.698;2023-10-19T04:36:45;4.37;;;1.23;;
14209;SDS011;7188;56.070;12.698;2023-10-19T04:39:11;2.17;;;1.23;;
14209;SDS011;7188;56.070;12.698;2023-10-19T04:41:39;3.67;;;1.40;;
14209;SDS011;7188;56.070;12.698;2023-10-19T04:44:06;1.97;;;1.00;;
14209;SDS011;7188;56.070;12.698;2023-10-19T04:46:33;4.33;;;1.73;;
14209;SDS011;7188;56.070;12.698;2023-10-19T04:48:59;3.53;;;1.20;;
14209;SDS011;7188;56.070;12.698;2023-10-19T04:51:25;2.80;;;1.37;;
14209;SDS011;7188;56.070;12.698;2023-10-19T04:53:52;4.37;;;1.17;;
14209;SDS011;7188;56.070;12.698;2023-10-19T04:56:17;6.17;;;1.77;;
14209;SDS011;7188;56.070;12.698;2023-10-19T04:59:02;2.57;;;1.30;;
14209;SDS011;7188;56.070;12.698;2023-10-19T05:01:28;4.37;;;1.50;;
14209;SDS011;7188;56.070;12.698;2023-10-19T05:03:53;4.37;;;1.43;;
14209;SDS011;7188;56.070;12.698;2023-10-19T05:06:19;4.37;;;1.37;;
14209;SDS011;7188;56.070;12.698;2023-10-19T05:09:05;9.23;;;1.53;;
14209;SDS011;7188;56.070;12.698;2023-10-19T05:11:31;3.30;;;1.30;;
14209;SDS011;7188;56.070;12.698;2023-10-19T05:13:57;6.93;;;1.70;;
14209;SDS011;7188;56.070;12.698;2023-10-19T05:16:22;2.53;;;1.50;;
14209;SDS011;7188;56.070;12.698;2023-10-19T05:18:48;2.73;;;1.47;;
14209;SDS011;7188;56.070;12.698;2023-10-19T05:21:13;1.73;;;1.47;;
14209;SDS011;7188;56.070;12.698;2023-10-19T05:23:39;4.37;;;1.60;;
14209;SDS011;7188;56.070;12.698;2023-10-19T05:26:05;1.77;;;1.23;;
14209;SDS011;7188;56.070;12.698;2023-10-19T05:28:31;2.73;;;1.10;;
14209;SDS011;7188;56.070;12.698;2023-10-19T05:30:58;4.20;;;1.50;;
14209;SDS011;7188;56.070;12.698;2023-10-19T05:33:24;2.30;;;1.30;;
14209;SDS011;7188;56.070;12.698;2023-10-19T05:35:52;3.63;;;1.47;;
14209;SDS011;7188;56.070;12.698;2023-10-19T05:38:17;2.07;;;1.30;;
14209;SDS011;7188;56.070;12.698;2023-10-19T05:40:45;3.73;;;1.30;;
14209;SDS011;7188;56.070;12.698;2023-10-19T05:43:10;5.80;;;1.70;;
14209;SDS011;7188;56.070;12.698;2023-10-19T05:45:37;3.40;;;1.60;;
14209;SDS011;7188;56.070;12.698;2023-10-19T05:48:03;2.13;;;1.10;;
14209;SDS011;7188;56.070;12.698;2023-10-19T05:50:31;3.43;;;1.40;;
14209;SDS011;7188;56.070;12.698;2023-10-19T05:53:01;1.87;;;1.20;;
14209;SDS011;7188;56.070;12.698;2023-10-19T05:55:28;3.43;;;1.73;;
14209;SDS011;7188;56.070;12.698;2023-10-19T05:57:54;5.13;;;1.40;;
14209;SDS011;7188;56.070;12.698;2023-10-19T06:00:20;3.30;;;1.43;;
14209;SDS011;7188;56.070;12.698;2023-10-19T06:02:46;4.33;;;1.80;;
14209;SDS011;7188;56.070;12.698;2023-10-19T06:05:16;2.30;;;1.27;;
14209;SDS011;7188;56.070;12.698;2023-10-19T06:07:45;3.87;;;1.23;;
14209;SDS011;7188;56.070;12.698;2023-10-19T06:10:19;3.70;;;1.60;;
14209;SDS011;7188;56.070;12.698;2023-10-19T06:12:47;4.67;;;1.43;;
14209;SDS011;7188;56.070;12.698;2023-10-19T06:15:15;4.00;;;1.40;;
14209;SDS011;7188;56.070;12.698;2023-10-19T06:17:43;2.60;;;2.00;;
14209;SDS011;7188;56.070;12.698;2023-10-19T06:20:10;3.63;;;1.40;;
14209;SDS011;7188;56.070;12.698;2023-10-19T06:22:56;2.20;;;1.50;;
14209;SDS011;7188;56.070;12.698;2023-10-19T06:25:26;6.33;;;2.07;;
14209;SDS011;7188;56.070;12.698;2023-10-19T06:27:52;2.93;;;1.60;;
14209;SDS011;7188;56.070;12.698;2023-10-19T06:30:18;4.47;;;1.53;;
14209;SDS011;7188;56.070;12.698;2023-10-19T06:32:48;4.73;;;1.53;;
14209;SDS011;7188;56.070;12.698;2023-10-19T06:35:27;3.97;;;1.43;;
14209;SDS011;7188;56.070;12.698;2023-10-19T06:37:54;4.00;;;1.90;;
14209;SDS011;7188;56.070;12.698;2023-10-19T06:40:20;2.47;;;0.90;;
14209;SDS011;7188;56.070;12.698;2023-10-19T06:42:47;3.03;;;1.53;;
14209;SDS011;7188;56.070;12.698;2023-10-19T06:45:14;4.00;;;1.50;;
14209;SDS011;7188;56.070;12.698;2023-10-19T06:47:45;2.57;;;1.50;;
14209;SDS011;7188;56.070;12.698;2023-10-19T06:50:12;2.70;;;1.33;;
14209;SDS011;7188;56.070;12.698;2023-10-19T06:52:40;2.87;;;1.40;;
14209;SDS011;7188;56.070;12.698;2023-10-19T06:55:07;2.30;;;1.60;;
14209;SDS011;7188;56.070;12.698;2023-10-19T06:57:50;3.20;;;1.60;;
14209;SDS011;7188;56.070;12.698;2023-10-19T07:00:21;5.50;;;1.40;;
14209;SDS011;7188;56.070;12.698;2023-10-19T07:02:51;2.07;;;1.20;;
14209;SDS011;7188;56.070;12.698;2023-10-19T07:05:20;4.57;;;1.00;;
14209;SDS011;7188;56.070;12.698;2023-10-19T07:07:47;2.53;;;1.27;;
14209;SDS011;7188;56.070;12.698;2023-10-19T07:10:14;3.90;;;1.30;;
14209;SDS011;7188;56.070;12.698;2023-10-19T07:12:42;2.43;;;1.20;;
14209;SDS011;7188;56.070;12.698;2023-10-19T07:15:09;1.63;;;1.10;;
14209;SDS011;7188;56.070;12.698;2023-10-19T07:17:44;1.80;;;1.00;;
14209;SDS011;7188;56.070;12.698;2023-10-19T07:20:11;2.80;;;1.23;;
14209;SDS011;7188;56.070;12.698;2023-10-19T07:22:55;1.57;;;0.90;;
14209;SDS011;7188;56.070;12.698;2023-10-19T07:25:28;2.20;;;1.03;;
14209;SDS011;7188;56.070;12.698;2023-10-19T07:27:54;1.20;;;0.87;;
14209;SDS011;7188;56.070;12.698;2023-10-19T07:30:20;3.17;;;1.20;;
14209;SDS011;7188;56.070;12.698;2023-10-19T07:32:50;10.60;;;1.53;;
14209;SDS011;7188;56.070;12.698;2023-10-19T07:35:18;3.17;;;1.13;;
14209;SDS011;7188;56.070;12.698;2023-10-19T07:37:53;0.90;;;0.70;;
14209;SDS011;7188;56.070;12.698;2023-10-19T07:40:20;1.97;;;0.90;;
14209;SDS011;7188;56.070;12.698;2023-10-19T07:42:46;3.50;;;0.90;;
14209;SDS011;7188;56.070;12.698;2023-10-19T07:45:14;2.27;;;0.90;;
14209;SDS011;7188;56.070;12.698;2023-10-19T07:47:40;2.73;;;1.10;;
14209;SDS011;7188;56.070;12.698;2023-10-19T07:50:10;1.97;;;1.07;;
14209;SDS011;7188;56.070;12.698;2023-10-19T07:52:46;1.77;;;1.07;;
14209;SDS011;7188;56.070;12.698;2023-10-19T07:55:14;3.20;;;1.10;;
14209;SDS011;7188;56.070;12.698;2023-10-19T07:57:41;3.57;;;0.93;;
14209;SDS011;7188;56.070;12.698;2023-10-19T08:00:07;2.40;;;0.93;;
14209;SDS011;7188;56.070;12.698;2023-10-19T08:02:35;1.33;;;0.90;;
14209;SDS011;7188;56.070;12.698;2023-10-19T08:05:02;1.93;;;1.00;;
14209;SDS011;7188;56.070;12.698;2023-10-19T08:07:28;1.87;;;0.97;;
14209;SDS011;7188;56.070;12.698;2023-10-19T08:09:54;1.47;;;1.00;;
14209;SDS011;7188;56.070;12.698;2023-10-19T08:12:20;2.10;;;0.77;;
14209;SDS011;7188;56.070;12.698;2023-10-19T08:14:47;1.10;;;0.90;;
14209;SDS011;7188;56.070;12.698;2023-10-19T08:17:13;2.63;;;0.97;;
14209;SDS011;7188;56.070;12.698;2023-10-19T08:19:39;1.43;;;0.63;;
14209;SDS011;7188;56.070;12.698;2023-10-19T08:22:06;2.40;;;1.10;;
14209;SDS011;7188;56.070;12.698;2023-10-19T08:24:32;2.83;;;1.07;;
14209;SDS011;7188;56.070;12.698;2023-10-19T08:27:00;3.67;;;1.10;;
14209;SDS011;7188;56.070;12.698;2023-10-19T08:29:26;2.97;;;0.87;;
14209;SDS011;7188;56.070;12.698;2023-10-19T08:31:52;1.33;;;0.90;;
14209;SDS011;7188;56.070;12.698;2023-10-19T08:34:17;2.83;;;1.00;;
14209;SDS011;7188;56.070;12.698;2023-10-19T08:36:45;3.93;;;1.07;;
14209;SDS011;7188;56.070;12.698;2023-10-19T08:39:11;0.93;;;0.60;;
14209;SDS011;7188;56.070;12.698;2023-10-19T08:41:38;1.47;;;0.80;;
14209;SDS011;7188;56.070;12.698;2023-10-19T08:44:06;4.37;;;0.70;;
14209;SDS011;7188;56.070;12.698;2023-10-19T08:46:44;3.03;;;0.90;;
14209;SDS011;7188;56.070;12.698;2023-10-19T08:49:12;1.50;;;1.00;;
14209;SDS011;7188;56.070;12.698;2023-10-19T08:51:40;3.47;;;0.70;;
14209;SDS011;7188;56.070;12.698;2023-10-19T08:54:12;4.70;;;0.80;;
14209;SDS011;7188;56.070;12.698;2023-10-19T08:56:40;1.50;;;0.90;;
14209;SDS011;7188;56.070;12.698;2023-10-19T08:59:09;0.93;;;0.93;;
14209;SDS011;7188;56.070;12.698;2023-10-19T09:01:40;2.10;;;1.00;;
14209;SDS011;7188;56.070;12.698;2023-10-19T09:04:12;1.27;;;0.63;;
14209;SDS011;7188;56.070;12.698;2023-10-19T09:06:39;1.20;;;0.90;;
14209;SDS011;7188;56.070;12.698;2023-10-19T09:09:13;0.60;;;0.60;;
14209;SDS011;7188;56.070;12.698;2023-10-19T09:11:44;1.10;;;0.70;;
14209;SDS011;7188;56.070;12.698;2023-10-19T09:14:15;1.97;;;0.60;;
14209;SDS011;7188;56.070;12.698;2023-10-19T09:16:57;1.30;;;0.87;;
14209;SDS011;7188;56.070;12.698;2023-10-19T09:19:41;1.70;;;0.90;;
14209;SDS011;7188;56.070;12.698;2023-10-19T09:22:08;2.43;;;0.73;;
14209;SDS011;7188;56.070;12.698;2023-10-19T09:24:46;2.20;;;0.70;;
14209;SDS011;7188;56.070;12.698;2023-10-19T09:27:13;1.53;;;0.70;;
14209;SDS011;7188;56.070;12.698;2023-10-19T09:29:39;2.73;;;0.70;;
14209;SDS011;7188;56.070;12.698;2023-10-19T09:32:06;0.73;;;0.60;;
14209;SDS011;7188;56.070;12.698;2023-10-19T09:34:32;1.70;;;0.50;;
14209;SDS011;7188;56.070;12.698;2023-10-19T09:36:59;1.77;;;0.77;;
14209;SDS011;7188;56.070;12.698;2023-10-19T09:39:29;0.90;;;0.90;;
14209;SDS011;7188;56.070;12.698;2023-10-19T09:42:08;1.10;;;0.60;;
14209;SDS011;7188;56.070;12.698;2023-10-19T09:47:09;3.37;;;1.40;;
14209;SDS011;7188;56.070;12.698;2023-10-19T09:49:49;1.70;;;0.50;;
14209;SDS011;7188;56.070;12.698;2023-10-19T09:52:15;2.17;;;0.67;;
14209;SDS011;7188;56.070;12.698;2023-10-19T09:57:13;3.33;;;0.93;;
14209;SDS011;7188;56.070;12.698;2023-10-19T09:59:44;0.60;;;0.60;;
14209;SDS011;7188;56.070;12.698;2023-10-19T10:02:15;4.00;;;0.50;;
14209;SDS011;7188;56.070;12.698;2023-10-19T10:04:43;3.67;;;0.70;;
14209;SDS011;7188;56.070;12.698;2023-10-19T10:07:10;2.87;;;0.50;;
14209;SDS011;7188;56.070;12.698;2023-10-19T10:09:37;0.40;;;0.40;;
14209;SDS011;7188;56.070;12.698;2023-10-19T10:12:18;2.27;;;1.00;;
14209;SDS011;7188;56.070;12.698;2023-10-19T10:14:55;0.90;;;0.47;;
14209;SDS011;7188;56.070;12.698;2023-10-19T10:17:33;1.07;;;0.70;;
14209;SDS011;7188;56.070;12.698;2023-10-19T10:25:51;1.57;;;0.70;;
14209;SDS011;7188;56.070;12.698;2023-10-19T10:28:18;2.10;;;0.40;;
14209;SDS011;7188;56.070;12.698;2023-10-19T10:33:47;1.53;;;0.50;;
14209;SDS011;7188;56.070;12.698;2023-10-19T10:36:14;0.53;;;0.50;;
14209;SDS011;7188;56.070;12.698;2023-10-19T10:38:42;1.07;;;0.60;;
14209;SDS011;7188;56.070;12.698;2023-10-19T10:41:08;1.37;;;0.67;;
14209;SDS011;7188;56.070;12.698;2023-10-19T10:43:49;1.70;;;1.07;;
14209;SDS011;7188;56.070;12.698;2023-10-19T10:46:18;1.37;;;0.57;;
14209;SDS011;7188;56.070;12.698;2023-10-19T10:48:46;2.50;;;0.60;;
14209;SDS011;7188;56.070;12.698;2023-10-19T10:51:17;0.77;;;0.60;;
14209;SDS011;7188;56.070;12.698;2023-10-19T10:53:46;1.73;;;0.43;;
14209;SDS011;7188;56.070;12.698;2023-10-19T10:56:12;1.10;;;0.67;;
14209;SDS011;7188;56.070;12.698;2023-10-19T10:58:38;0.63;;;0.63;;
14209;SDS011;7188;56.070;12.698;2023-10-19T11:01:03;1.97;;;0.70;;
14209;SDS011;7188;56.070;12.698;2023-10-19T11:03:30;2.70;;;0.60;;
14209;SDS011;7188;56.070;12.698;2023-10-19T11:06:02;0.50;;;0.43;;
14209;SDS011;7188;56.070;12.698;2023-10-19T11:08:29;1.53;;;0.40;;
14209;SDS011;7188;56.070;12.698;2023-10-19T11:11:01;3.43;;;1.00;;
14209;SDS011;7188;56.070;12.698;2023-10-19T11:13:29;3.37;;;0.50;;
14209;SDS011;7188;56.070;12.698;2023-10-19T11:15:58;3.40;;;0.60;;
14209;SDS011;7188;56.070;12.698;2023-10-19T11:18:36;0.87;;;0.87;;
14209;SDS011;7188;56.070;12.698;2023-10-19T11:21:06;1.20;;;0.60;;
14209;SDS011;7188;56.070;12.698;2023-10-19T11:23:44;2.40;;;0.50;;
14209;SDS011;7188;56.070;12.698;2023-10-19T11:26:11;0.93;;;0.60;;
14209;SDS011;7188;56.070;12.698;2023-10-19T11:28:39;2.00;;;0.60;;
14209;SDS011;7188;56.070;12.698;2023-10-19T11:33:41;2.50;;;0.80;;
14209;SDS011;7188;56.070;12.698;2023-10-19T11:36:11;1.67;;;0.50;;
14209;SDS011;7188;56.070;12.698;2023-10-19T11:38:43;0.63;;;0.60;;
14209;SDS011;7188;56.070;12.698;2023-10-19T11:41:11;0.73;;;0.40;;
14209;SDS011;7188;56.070;12.698;2023-10-19T11:43:40;0.70;;;0.70;;
14209;SDS011;7188;56.070;12.698;2023-10-19T11:46:08;0.73;;;0.60;;
14209;SDS011;7188;56.070;12.698;2023-10-19T11:48:34;2.20;;;0.47;;
14209;SDS011;7188;56.070;12.698;2023-10-19T11:51:03;2.50;;;0.60;;
14209;SDS011;7188;56.070;12.698;2023-10-19T11:53:30;0.83;;;0.60;;
14209;SDS011;7188;56.070;12.698;2023-10-19T11:55:58;2.43;;;0.50;;
14209;SDS011;7188;56.070;12.698;2023-10-19T11:58:29;0.60;;;0.20;;
14209;SDS011;7188;56.070;12.698;2023-10-19T12:00:59;1.47;;;0.57;;
14209;SDS011;7188;56.070;12.698;2023-10-19T12:03:26;2.07;;;0.40;;
14209;SDS011;7188;56.070;12.698;2023-10-19T12:05:52;1.93;;;0.80;;
14209;SDS011;7188;56.070;12.698;2023-10-19T12:08:36;1.63;;;0.60;;
14209;SDS011;7188;56.070;12.698;2023-10-19T12:11:05;1.40;;;0.43;;
14209;SDS011;7188;56.070;12.698;2023-10-19T12:13:40;2.77;;;0.50;;
14209;SDS011;7188;56.070;12.698;2023-10-19T12:16:08;0.70;;;0.50;;
14209;SDS011;7188;56.070;12.698;2023-10-19T12:18:53;1.40;;;0.47;;
14209;SDS011;7188;56.070;12.698;2023-10-19T12:21:19;3.70;;;0.60;;
14209;SDS011;7188;56.070;12.698;2023-10-19T12:23:52;3.47;;;0.70;;
14209;SDS011;7188;56.070;12.698;2023-10-19T12:26:20;1.80;;;0.60;;
14209;SDS011;7188;56.070;12.698;2023-10-19T12:28:45;3.00;;;0.50;;
14209;SDS011;7188;56.070;12.698;2023-10-19T12:31:12;2.43;;;0.60;;
14209;SDS011;7188;56.070;12.698;2023-10-19T12:33:43;0.57;;;0.50;;
14209;SDS011;7188;56.070;12.698;2023-10-19T12:36:09;0.87;;;0.67;;
14209;SDS011;7188;56.070;12.698;2023-10-19T12:38:54;0.67;;;0.40;;
14209;SDS011;7188;56.070;12.698;2023-10-19T12:41:20;2.10;;;0.50;;
14209;SDS011;7188;56.070;12.698;2023-10-19T12:43:46;0.33;;;0.30;;
14209;SDS011;7188;56.070;12.698;2023-10-19T12:46:12;2.20;;;0.50;;
14209;SDS011;7188;56.070;12.698;2023-10-19T12:48:42;2.77;;;0.57;;
14209;SDS011;7188;56.070;12.698;2023-10-19T12:51:08;0.73;;;0.70;;
14209;SDS011;7188;56.070;12.698;2023-10-19T12:53:36;2.60;;;0.50;;
14209;SDS011;7188;56.070;12.698;2023-10-19T12:56:04;1.57;;;0.47;;
14209;SDS011;7188;56.070;12.698;2023-10-19T12:58:31;0.40;;;0.40;;
14209;SDS011;7188;56.070;12.698;2023-10-19T13:00:57;0.50;;;0.40;;
14209;SDS011;7188;56.070;12.698;2023-10-19T13:03:23;0.43;;;0.43;;
14209;SDS011;7188;56.070;12.698;2023-10-19T13:05:52;2.93;;;0.30;;
14209;SDS011;7188;56.070;12.698;2023-10-19T13:08:18;1.47;;;0.40;;
14209;SDS011;7188;56.070;12.698;2023-10-19T13:10:44;0.63;;;0.50;;
14209;SDS011;7188;56.070;12.698;2023-10-19T13:13:12;2.33;;;0.43;;
14209;SDS011;7188;56.070;12.698;2023-10-19T13:15:40;9.00;;;1.30;;
14209;SDS011;7188;56.070;12.698;2023-10-19T13:18:07;2.53;;;0.50;;
14209;SDS011;7188;56.070;12.698;2023-10-19T13:20:38;0.73;;;0.43;;
14209;SDS011;7188;56.070;12.698;2023-10-19T13:23:08;1.33;;;0.40;;
14209;SDS011;7188;56.070;12.698;2023-10-19T13:25:40;3.43;;;0.63;;
14209;SDS011;7188;56.070;12.698;2023-10-19T13:28:11;0.93;;;0.60;;
14209;SDS011;7188;56.070;12.698;2023-10-19T13:30:42;2.30;;;0.40;;
14209;SDS011;7188;56.070;12.698;2023-10-19T13:33:12;1.43;;;0.50;;
14209;SDS011;7188;56.070;12.698;2023-10-19T13:35:39;0.97;;;0.30;;
14209;SDS011;7188;56.070;12.698;2023-10-19T13:38:06;2.37;;;0.50;;
14209;SDS011;7188;56.070;12.698;2023-10-19T13:40:36;1.90;;;0.50;;
14209;SDS011;7188;56.070;12.698;2023-10-19T13:43:05;0.77;;;0.40;;
14209;SDS011;7188;56.070;12.698;2023-10-19T13:45:35;0.53;;;0.40;;
14209;SDS011;7188;56.070;12.698;2023-10-19T13:48:02;0.67;;;0.40;;
14209;SDS011;7188;56.070;12.698;2023-10-19T13:50:28;0.93;;;0.43;;
14209;SDS011;7188;56.070;12.698;2023-10-19T13:52:58;0.87;;;0.40;;
14209;SDS011;7188;56.070;12.698;2023-10-19T13:55:25;0.53;;;0.37;;
14209;SDS011;7188;56.070;12.698;2023-10-19T13:57:54;1.30;;;0.33;;
14209;SDS011;7188;56.070;12.698;2023-10-19T14:00:23;0.83;;;0.40;;
14209;SDS011;7188;56.070;12.698;2023-10-19T14:02:53;2.10;;;0.30;;
14209;SDS011;7188;56.070;12.698;2023-10-19T14:05:19;0.30;;;0.30;;
14209;SDS011;7188;56.070;12.698;2023-10-19T14:07:46;0.70;;;0.30;;
14209;SDS011;7188;56.070;12.698;2023-10-19T14:10:12;0.93;;;0.30;;
14209;SDS011;7188;56.070;12.698;2023-10-19T14:12:39;0.90;;;0.40;;
14209;SDS011;7188;56.070;12.698;2023-10-19T14:15:17;0.93;;;0.30;;
14209;SDS011;7188;56.070;12.698;2023-10-19T14:17:44;2.43;;;0.50;;
14209;SDS011;7188;56.070;12.698;2023-10-19T14:20:11;1.23;;;0.23;;
14209;SDS011;7188;56.070;12.698;2023-10-19T14:22:59;1.50;;;0.30;;
14209;SDS011;7188;56.070;12.698;2023-10-19T14:25:36;2.83;;;0.40;;
14209;SDS011;7188;56.070;12.698;2023-10-19T14:28:03;0.77;;;0.30;;
14209;SDS011;7188;56.070;12.698;2023-10-19T14:30:31;2.63;;;0.30;;
14209;SDS011;7188;56.070;12.698;2023-10-19T14:32:57;0.40;;;0.23;;
14209;SDS011;7188;56.070;12.698;2023-10-19T14:35:35;2.97;;;0.30;;
14209;SDS011;7188;56.070;12.698;2023-10-19T14:38:04;1.27;;;0.30;;
14209;SDS011;7188;56.070;12.698;2023-10-19T14:40:31;1.13;;;0.30;;
14209;SDS011;7188;56.070;12.698;2023-10-19T14:42:57;0.20;;;0.20;;
14209;SDS011;7188;56.070;12.698;2023-10-19T14:45:24;1.43;;;0.30;;
14209;SDS011;7188;56.070;12.698;2023-10-19T14:47:51;1.10;;;0.40;;
14209;SDS011;7188;56.070;12.698;2023-10-19T14:50:18;0.50;;;0.20;;
14209;SDS011;7188;56.070;12.698;2023-10-19T14:52:45;0.73;;;0.40;;
14209;SDS011;7188;56.070;12.698;2023-10-19T14:55:13;0.40;;;0.20;;
14209;SDS011;7188;56.070;12.698;2023-10-19T14:57:41;1.03;;;0.40;;
14209;SDS011;7188;56.070;12.698;2023-10-19T15:00:09;2.37;;;0.47;;
14209;SDS011;7188;56.070;12.698;2023-10-19T15:02:55;0.67;;;0.47;;
14209;SDS011;7188;56.070;12.698;2023-10-19T15:05:22;0.30;;;0.30;;
14209;SDS011;7188;56.070;12.698;2023-10-19T15:07:50;0.30;;;0.30;;
14209;SDS011;7188;56.070;12.698;2023-10-19T15:10:16;0.43;;;0.20;;
14209;SDS011;7188;56.070;12.698;2023-10-19T15:12:47;0.20;;;0.20;;
14209;SDS011;7188;56.070;12.698;2023-10-19T15:15:14;0.73;;;0.30;;
14209;SDS011;7188;56.070;12.698;2023-10-19T15:17:40;1.30;;;0.17;;
14209;SDS011;7188;56.070;12.698;2023-10-19T15:20:09;0.83;;;0.30;;
14209;SDS011;7188;56.070;12.698;2023-10-19T15:22:36;1.53;;;0.30;;
14209;SDS011;7188;56.070;12.698;2023-10-19T15:25:03;0.27;;;0.27;;